sensor_id;sensor_type;location;lat;lon;timestamp;P1;durP1;ratioP1;P2;durP2;ratioP2
8958;SDS011;4514;49.476;8.484;2023-02-28T00:02:21;2.03;;;1.67;;
8958;SDS011;4514;49.476;8.484;2023-02-28T00:04:51;1.77;;;1.60;;
8958;SDS011;4514;49.476;8.484;2023-02-28T00:07:28;2.80;;;1.87;;
8958;SDS011;4514;49.476;8.484;2023-02-28T00:09:57;2.00;;;1.80;;
8958;SDS011;4514;49.476;8.484;2023-02-28T00:12:23;1.87;;;1.63;;
8958;SDS011;4514;49.476;8.484;2023-02-28T00:14:49;2.10;;;1.90;;
8958;SDS011;4514;49.476;8.484;2023-02-28T00:17:19;3.93;;;1.97;;
8958;SDS011;4514;49.476;8.484;2023-02-28T00:19:48;2.10;;;1.90;;
8958;SDS011;4514;49.476;8.484;2023-02-28T00:22:15;2.73;;;1.80;;
8958;SDS011;4514;49.476;8.484;2023-02-28T00:24:41;3.03;;;2.10;;
8958;SDS011;4514;49.476;8.484;2023-02-28T00:27:09;2.67;;;2.23;;
8958;SDS011;4514;49.476;8.484;2023-02-28T00:29:34;1.80;;;1.70;;
8958;SDS011;4514;49.476;8.484;2023-02-28T00:32:02;2.20;;;2.00;;
8958;SDS011;4514;49.476;8.484;2023-02-28T00:34:30;2.47;;;2.00;;
8958;SDS011;4514;49.476;8.484;2023-02-28T00:36:56;2.40;;;2.00;;
8958;SDS011;4514;49.476;8.484;2023-02-28T00:39:21;2.20;;;1.80;;
8958;SDS011;4514;49.476;8.484;2023-02-28T00:41:49;4.17;;;2.20;;
8958;SDS011;4514;49.476;8.484;2023-02-28T00:44:14;2.67;;;1.90;;
8958;SDS011;4514;49.476;8.484;2023-02-28T00:46:40;2.30;;;2.10;;
8958;SDS011;4514;49.476;8.484;2023-02-28T00:49:10;2.33;;;1.70;;
8958;SDS011;4514;49.476;8.484;2023-02-28T00:51:35;1.97;;;1.87;;
8958;SDS011;4514;49.476;8.484;2023-02-28T00:54:03;2.77;;;2.13;;
8958;SDS011;4514;49.476;8.484;2023-02-28T00:56:31;2.13;;;1.93;;
8958;SDS011;4514;49.476;8.484;2023-02-28T00:58:56;2.93;;;2.20;;
8958;SDS011;4514;49.476;8.484;2023-02-28T01:01:22;2.70;;;2.00;;
8958;SDS011;4514;49.476;8.484;2023-02-28T01:03:49;2.30;;;2.10;;
8958;SDS011;4514;49.476;8.484;2023-02-28T01:06:17;2.50;;;2.30;;
8958;SDS011;4514;49.476;8.484;2023-02-28T01:08:42;2.53;;;2.20;;
8958;SDS011;4514;49.476;8.484;2023-02-28T01:11:11;3.03;;;2.23;;
8958;SDS011;4514;49.476;8.484;2023-02-28T01:13:37;3.37;;;2.60;;
8958;SDS011;4514;49.476;8.484;2023-02-28T01:16:05;2.50;;;2.30;;
8958;SDS011;4514;49.476;8.484;2023-02-28T01:18:31;3.03;;;2.37;;
8958;SDS011;4514;49.476;8.484;2023-02-28T01:21:04;2.53;;;2.33;;
8958;SDS011;4514;49.476;8.484;2023-02-28T01:23:33;3.20;;;2.60;;
8958;SDS011;4514;49.476;8.484;2023-02-28T01:26:06;3.97;;;2.33;;
8958;SDS011;4514;49.476;8.484;2023-02-28T01:28:32;2.93;;;2.50;;
8958;SDS011;4514;49.476;8.484;2023-02-28T01:31:00;2.57;;;2.37;;
8958;SDS011;4514;49.476;8.484;2023-02-28T01:33:31;3.30;;;2.13;;
8958;SDS011;4514;49.476;8.484;2023-02-28T01:36:00;2.53;;;2.20;;
8958;SDS011;4514;49.476;8.484;2023-02-28T01:38:36;2.73;;;2.30;;
8958;SDS011;4514;49.476;8.484;2023-02-28T01:41:03;2.40;;;2.20;;
8958;SDS011;4514;49.476;8.484;2023-02-28T01:46:20;3.10;;;2.80;;
8958;SDS011;4514;49.476;8.484;2023-02-28T01:48:47;2.93;;;2.50;;
8958;SDS011;4514;49.476;8.484;2023-02-28T01:51:18;3.57;;;2.50;;
8958;SDS011;4514;49.476;8.484;2023-02-28T01:53:47;2.63;;;2.40;;
8958;SDS011;4514;49.476;8.484;2023-02-28T01:56:19;3.17;;;2.50;;
8958;SDS011;4514;49.476;8.484;2023-02-28T01:58:46;2.83;;;2.60;;
8958;SDS011;4514;49.476;8.484;2023-02-28T02:01:13;2.50;;;2.30;;
8958;SDS011;4514;49.476;8.484;2023-02-28T02:03:49;3.97;;;2.87;;
8958;SDS011;4514;49.476;8.484;2023-02-28T02:06:20;4.23;;;2.50;;
8958;SDS011;4514;49.476;8.484;2023-02-28T02:09:15;3.10;;;2.80;;
8958;SDS011;4514;49.476;8.484;2023-02-28T02:11:42;3.70;;;2.57;;
8958;SDS011;4514;49.476;8.484;2023-02-28T02:17:07;3.43;;;3.13;;
8958;SDS011;4514;49.476;8.484;2023-02-28T02:25:39;3.10;;;2.80;;
8958;SDS011;4514;49.476;8.484;2023-02-28T02:36:42;3.13;;;2.83;;
8958;SDS011;4514;49.476;8.484;2023-02-28T02:39:25;3.20;;;2.60;;
8958;SDS011;4514;49.476;8.484;2023-02-28T02:41:56;3.83;;;3.07;;
8958;SDS011;4514;49.476;8.484;2023-02-28T02:44:59;3.47;;;2.80;;
8958;SDS011;4514;49.476;8.484;2023-02-28T02:47:21;2.90;;;2.70;;
8958;SDS011;4514;49.476;8.484;2023-02-28T02:49:50;4.47;;;3.07;;
8958;SDS011;4514;49.476;8.484;2023-02-28T02:52:20;3.20;;;2.90;;
8958;SDS011;4514;49.476;8.484;2023-02-28T02:54:47;3.10;;;2.80;;
8958;SDS011;4514;49.476;8.484;2023-02-28T02:57:19;3.00;;;2.70;;
8958;SDS011;4514;49.476;8.484;2023-02-28T02:59:51;3.17;;;2.87;;
8958;SDS011;4514;49.476;8.484;2023-02-28T03:02:19;4.03;;;3.50;;
8958;SDS011;4514;49.476;8.484;2023-02-28T03:04:46;4.47;;;3.23;;
8958;SDS011;4514;49.476;8.484;2023-02-28T03:07:18;3.83;;;3.53;;
8958;SDS011;4514;49.476;8.484;2023-02-28T03:09:53;3.50;;;3.20;;
8958;SDS011;4514;49.476;8.484;2023-02-28T03:12:19;3.57;;;3.07;;
8958;SDS011;4514;49.476;8.484;2023-02-28T03:17:29;3.97;;;3.53;;
8958;SDS011;4514;49.476;8.484;2023-02-28T03:20:01;4.93;;;3.43;;
8958;SDS011;4514;49.476;8.484;2023-02-28T03:25:43;3.50;;;3.20;;
8958;SDS011;4514;49.476;8.484;2023-02-28T03:33:39;3.90;;;3.50;;
8958;SDS011;4514;49.476;8.484;2023-02-28T03:36:14;3.97;;;3.23;;
8958;SDS011;4514;49.476;8.484;2023-02-28T03:41:19;3.73;;;3.37;;
8958;SDS011;4514;49.476;8.484;2023-02-28T03:43:49;4.33;;;3.40;;
8958;SDS011;4514;49.476;8.484;2023-02-28T03:46:21;3.67;;;3.30;;
8958;SDS011;4514;49.476;8.484;2023-02-28T03:49:25;4.17;;;3.27;;
8958;SDS011;4514;49.476;8.484;2023-02-28T03:51:52;3.93;;;3.30;;
8958;SDS011;4514;49.476;8.484;2023-02-28T03:54:27;4.07;;;3.57;;
8958;SDS011;4514;49.476;8.484;2023-02-28T03:59:47;3.60;;;3.30;;
8958;SDS011;4514;49.476;8.484;2023-02-28T04:02:17;4.17;;;3.77;;
8958;SDS011;4514;49.476;8.484;2023-02-28T04:04:43;4.83;;;3.53;;
8958;SDS011;4514;49.476;8.484;2023-02-28T04:07:10;4.23;;;3.70;;
8958;SDS011;4514;49.476;8.484;2023-02-28T04:09:38;3.80;;;3.50;;
8958;SDS011;4514;49.476;8.484;2023-02-28T04:12:04;4.53;;;3.70;;
8958;SDS011;4514;49.476;8.484;2023-02-28T04:14:29;4.07;;;3.77;;
8958;SDS011;4514;49.476;8.484;2023-02-28T04:16:55;3.97;;;3.63;;
8958;SDS011;4514;49.476;8.484;2023-02-28T04:19:20;3.80;;;3.50;;
8958;SDS011;4514;49.476;8.484;2023-02-28T04:21:49;3.90;;;3.60;;
8958;SDS011;4514;49.476;8.484;2023-02-28T04:24:19;4.00;;;3.70;;
8958;SDS011;4514;49.476;8.484;2023-02-28T04:26:50;4.10;;;3.67;;
8958;SDS011;4514;49.476;8.484;2023-02-28T04:29:20;4.87;;;3.70;;
8958;SDS011;4514;49.476;8.484;2023-02-28T04:31:47;3.70;;;3.40;;
8958;SDS011;4514;49.476;8.484;2023-02-28T04:34:13;5.10;;;3.50;;
8958;SDS011;4514;49.476;8.484;2023-02-28T04:36:43;4.10;;;3.70;;
8958;SDS011;4514;49.476;8.484;2023-02-28T04:39:08;4.20;;;3.57;;
8958;SDS011;4514;49.476;8.484;2023-02-28T04:41:34;4.23;;;3.33;;
8958;SDS011;4514;49.476;8.484;2023-02-28T04:44:02;3.80;;;3.50;;
8958;SDS011;4514;49.476;8.484;2023-02-28T04:46:29;4.90;;;3.73;;
8958;SDS011;4514;49.476;8.484;2023-02-28T04:48:55;4.07;;;3.67;;
8958;SDS011;4514;49.476;8.484;2023-02-28T04:51:26;3.70;;;3.40;;
8958;SDS011;4514;49.476;8.484;2023-02-28T04:53:51;4.80;;;3.43;;
8958;SDS011;4514;49.476;8.484;2023-02-28T04:56:17;3.90;;;3.60;;
8958;SDS011;4514;49.476;8.484;2023-02-28T04:58:45;4.03;;;3.70;;
8958;SDS011;4514;49.476;8.484;2023-02-28T05:01:18;3.87;;;3.53;;
8958;SDS011;4514;49.476;8.484;2023-02-28T05:03:48;4.67;;;3.83;;
8958;SDS011;4514;49.476;8.484;2023-02-28T05:06:14;4.10;;;3.70;;
8958;SDS011;4514;49.476;8.484;2023-02-28T05:08:42;4.33;;;3.90;;
8958;SDS011;4514;49.476;8.484;2023-02-28T05:11:12;4.07;;;3.67;;
8958;SDS011;4514;49.476;8.484;2023-02-28T05:13:39;4.82;;;3.70;;
8958;SDS011;4514;49.476;8.484;2023-02-28T05:16:05;3.67;;;3.37;;
8958;SDS011;4514;49.476;8.484;2023-02-28T05:18:33;4.30;;;3.80;;
8958;SDS011;4514;49.476;8.484;2023-02-28T05:21:00;4.27;;;3.80;;
8958;SDS011;4514;49.476;8.484;2023-02-28T05:23:29;4.00;;;3.70;;
8958;SDS011;4514;49.476;8.484;2023-02-28T05:25:58;4.17;;;3.77;;
8958;SDS011;4514;49.476;8.484;2023-02-28T05:28:23;4.07;;;3.70;;
8958;SDS011;4514;49.476;8.484;2023-02-28T05:30:48;3.83;;;3.40;;
8958;SDS011;4514;49.476;8.484;2023-02-28T05:33:14;4.07;;;3.67;;
8958;SDS011;4514;49.476;8.484;2023-02-28T05:35:47;4.50;;;3.80;;
8958;SDS011;4514;49.476;8.484;2023-02-28T05:38:12;3.80;;;3.40;;
8958;SDS011;4514;49.476;8.484;2023-02-28T05:40:42;3.73;;;3.43;;
8958;SDS011;4514;49.476;8.484;2023-02-28T05:43:09;4.10;;;3.70;;
8958;SDS011;4514;49.476;8.484;2023-02-28T05:45:36;5.23;;;3.70;;
8958;SDS011;4514;49.476;8.484;2023-02-28T05:48:02;4.67;;;3.90;;
8958;SDS011;4514;49.476;8.484;2023-02-28T05:50:29;5.37;;;4.00;;
8958;SDS011;4514;49.476;8.484;2023-02-28T05:52:57;5.27;;;3.87;;
8958;SDS011;4514;49.476;8.484;2023-02-28T05:55:23;4.93;;;3.67;;
8958;SDS011;4514;49.476;8.484;2023-02-28T05:57:48;4.50;;;3.83;;
8958;SDS011;4514;49.476;8.484;2023-02-28T06:00:14;5.07;;;3.73;;
8958;SDS011;4514;49.476;8.484;2023-02-28T06:02:48;4.00;;;3.70;;
8958;SDS011;4514;49.476;8.484;2023-02-28T06:05:15;4.70;;;4.20;;
8958;SDS011;4514;49.476;8.484;2023-02-28T06:07:41;4.57;;;3.90;;
8958;SDS011;4514;49.476;8.484;2023-02-28T06:10:14;4.20;;;3.80;;
8958;SDS011;4514;49.476;8.484;2023-02-28T06:12:48;5.93;;;3.53;;
8958;SDS011;4514;49.476;8.484;2023-02-28T06:15:16;5.03;;;4.27;;
8958;SDS011;4514;49.476;8.484;2023-02-28T06:17:45;4.00;;;3.63;;
8958;SDS011;4514;49.476;8.484;2023-02-28T06:20:16;4.90;;;4.30;;
8958;SDS011;4514;49.476;8.484;2023-02-28T06:22:44;4.77;;;4.23;;
8958;SDS011;4514;49.476;8.484;2023-02-28T06:25:12;4.67;;;4.13;;
8958;SDS011;4514;49.476;8.484;2023-02-28T06:27:37;7.60;;;5.10;;
8958;SDS011;4514;49.476;8.484;2023-02-28T06:30:06;6.13;;;5.47;;
8958;SDS011;4514;49.476;8.484;2023-02-28T06:32:37;7.53;;;6.73;;
8958;SDS011;4514;49.476;8.484;2023-02-28T06:35:02;6.57;;;5.23;;
8958;SDS011;4514;49.476;8.484;2023-02-28T06:37:28;7.87;;;6.97;;
8958;SDS011;4514;49.476;8.484;2023-02-28T06:39:53;9.07;;;6.57;;
8958;SDS011;4514;49.476;8.484;2023-02-28T06:42:21;4.40;;;4.00;;
8958;SDS011;4514;49.476;8.484;2023-02-28T06:44:49;4.80;;;4.30;;
8958;SDS011;4514;49.476;8.484;2023-02-28T06:47:17;4.30;;;3.90;;
8958;SDS011;4514;49.476;8.484;2023-02-28T06:49:43;4.67;;;4.27;;
8958;SDS011;4514;49.476;8.484;2023-02-28T06:52:10;4.87;;;4.37;;
8958;SDS011;4514;49.476;8.484;2023-02-28T06:54:36;6.17;;;4.17;;
8958;SDS011;4514;49.476;8.484;2023-02-28T06:57:04;6.53;;;4.20;;
8958;SDS011;4514;49.476;8.484;2023-02-28T06:59:32;5.57;;;4.30;;
8958;SDS011;4514;49.476;8.484;2023-02-28T07:01:58;5.73;;;4.30;;
8958;SDS011;4514;49.476;8.484;2023-02-28T07:04:27;8.03;;;5.40;;
8958;SDS011;4514;49.476;8.484;2023-02-28T07:06:52;7.70;;;5.23;;
8958;SDS011;4514;49.476;8.484;2023-02-28T07:09:21;10.23;;;7.23;;
8958;SDS011;4514;49.476;8.484;2023-02-28T07:11:46;9.17;;;7.97;;
8958;SDS011;4514;49.476;8.484;2023-02-28T07:14:14;5.73;;;4.70;;
8958;SDS011;4514;49.476;8.484;2023-02-28T07:16:39;5.60;;;4.50;;
8958;SDS011;4514;49.476;8.484;2023-02-28T07:19:04;7.60;;;4.40;;
8958;SDS011;4514;49.476;8.484;2023-02-28T07:21:32;6.30;;;4.43;;
8958;SDS011;4514;49.476;8.484;2023-02-28T07:23:58;5.60;;;5.10;;
8958;SDS011;4514;49.476;8.484;2023-02-28T07:26:23;6.70;;;4.70;;
8958;SDS011;4514;49.476;8.484;2023-02-28T07:28:49;9.07;;;5.03;;
8958;SDS011;4514;49.476;8.484;2023-02-28T07:31:14;7.17;;;4.83;;
8958;SDS011;4514;49.476;8.484;2023-02-28T07:33:41;7.07;;;5.10;;
8958;SDS011;4514;49.476;8.484;2023-02-28T07:36:11;5.97;;;5.03;;
8958;SDS011;4514;49.476;8.484;2023-02-28T07:38:40;6.63;;;4.83;;
8958;SDS011;4514;49.476;8.484;2023-02-28T07:41:09;5.40;;;4.90;;
8958;SDS011;4514;49.476;8.484;2023-02-28T07:43:37;6.60;;;5.13;;
8958;SDS011;4514;49.476;8.484;2023-02-28T07:48:33;6.03;;;5.10;;
8958;SDS011;4514;49.476;8.484;2023-02-28T07:51:01;5.30;;;4.47;;
8958;SDS011;4514;49.476;8.484;2023-02-28T07:53:27;6.57;;;5.37;;
8958;SDS011;4514;49.476;8.484;2023-02-28T07:55:56;7.00;;;5.07;;
8958;SDS011;4514;49.476;8.484;2023-02-28T07:58:23;7.20;;;4.90;;
8958;SDS011;4514;49.476;8.484;2023-02-28T08:00:49;7.97;;;6.57;;
8958;SDS011;4514;49.476;8.484;2023-02-28T08:03:14;6.93;;;5.60;;
8958;SDS011;4514;49.476;8.484;2023-02-28T08:05:40;8.17;;;5.50;;
8958;SDS011;4514;49.476;8.484;2023-02-28T08:08:06;9.40;;;8.40;;
8958;SDS011;4514;49.476;8.484;2023-02-28T08:10:31;6.83;;;5.60;;
8958;SDS011;4514;49.476;8.484;2023-02-28T08:12:59;6.50;;;5.20;;
8958;SDS011;4514;49.476;8.484;2023-02-28T08:15:25;6.30;;;5.10;;
8958;SDS011;4514;49.476;8.484;2023-02-28T08:17:50;5.73;;;4.93;;
8958;SDS011;4514;49.476;8.484;2023-02-28T08:20:15;5.93;;;5.27;;
8958;SDS011;4514;49.476;8.484;2023-02-28T08:22:44;9.53;;;5.33;;
8958;SDS011;4514;49.476;8.484;2023-02-28T08:25:09;6.43;;;5.40;;
8958;SDS011;4514;49.476;8.484;2023-02-28T08:27:37;6.30;;;5.50;;
8958;SDS011;4514;49.476;8.484;2023-02-28T08:30:03;6.20;;;5.40;;
8958;SDS011;4514;49.476;8.484;2023-02-28T08:32:28;5.70;;;5.10;;
8958;SDS011;4514;49.476;8.484;2023-02-28T08:34:54;6.77;;;4.93;;
8958;SDS011;4514;49.476;8.484;2023-02-28T08:37:21;5.77;;;5.17;;
8958;SDS011;4514;49.476;8.484;2023-02-28T08:39:46;6.43;;;5.33;;
8958;SDS011;4514;49.476;8.484;2023-02-28T08:42:14;5.90;;;5.30;;
8958;SDS011;4514;49.476;8.484;2023-02-28T08:44:39;6.33;;;5.27;;
8958;SDS011;4514;49.476;8.484;2023-02-28T08:47:05;6.10;;;5.50;;
8958;SDS011;4514;49.476;8.484;2023-02-28T08:49:31;7.03;;;5.27;;
8958;SDS011;4514;49.476;8.484;2023-02-28T08:51:56;5.80;;;5.20;;
8958;SDS011;4514;49.476;8.484;2023-02-28T08:54:22;6.73;;;5.20;;
8958;SDS011;4514;49.476;8.484;2023-02-28T08:56:52;5.90;;;5.30;;
8958;SDS011;4514;49.476;8.484;2023-02-28T08:59:20;5.50;;;5.00;;
8958;SDS011;4514;49.476;8.484;2023-02-28T09:01:45;6.87;;;5.50;;
8958;SDS011;4514;49.476;8.484;2023-02-28T09:04:11;6.07;;;5.47;;
8958;SDS011;4514;49.476;8.484;2023-02-28T09:06:39;5.47;;;4.83;;
8958;SDS011;4514;49.476;8.484;2023-02-28T09:09:04;6.23;;;5.63;;
8958;SDS011;4514;49.476;8.484;2023-02-28T09:11:32;6.00;;;5.20;;
8958;SDS011;4514;49.476;8.484;2023-02-28T09:13:59;5.70;;;5.07;;
8958;SDS011;4514;49.476;8.484;2023-02-28T09:16:28;6.43;;;5.47;;
8958;SDS011;4514;49.476;8.484;2023-02-28T09:18:56;6.37;;;5.03;;
8958;SDS011;4514;49.476;8.484;2023-02-28T09:21:22;12.63;;;8.43;;
8958;SDS011;4514;49.476;8.484;2023-02-28T09:23:48;5.70;;;5.20;;
8958;SDS011;4514;49.476;8.484;2023-02-28T09:26:17;7.30;;;5.63;;
8958;SDS011;4514;49.476;8.484;2023-02-28T09:28:44;7.17;;;6.47;;
8958;SDS011;4514;49.476;8.484;2023-02-28T09:31:12;6.30;;;5.70;;
8958;SDS011;4514;49.476;8.484;2023-02-28T09:33:39;5.60;;;5.10;;
8958;SDS011;4514;49.476;8.484;2023-02-28T09:36:04;6.10;;;5.60;;
8958;SDS011;4514;49.476;8.484;2023-02-28T09:38:32;5.47;;;4.90;;
8958;SDS011;4514;49.476;8.484;2023-02-28T09:40:58;5.53;;;5.00;;
8958;SDS011;4514;49.476;8.484;2023-02-28T09:43:27;5.80;;;5.30;;
8958;SDS011;4514;49.476;8.484;2023-02-28T09:46:28;7.97;;;5.30;;
8958;SDS011;4514;49.476;8.484;2023-02-28T09:48:51;5.60;;;5.10;;
8958;SDS011;4514;49.476;8.484;2023-02-28T09:51:40;5.65;;;5.15;;
8958;SDS011;4514;49.476;8.484;2023-02-28T09:54:15;6.78;;;5.75;;
8958;SDS011;4514;49.476;8.484;2023-02-28T09:56:51;7.50;;;5.28;;
8958;SDS011;4514;49.476;8.484;2023-02-28T10:05:11;5.38;;;4.88;;
8958;SDS011;4514;49.476;8.484;2023-02-28T10:10:40;5.90;;;5.30;;
8958;SDS011;4514;49.476;8.484;2023-02-28T10:16:23;7.03;;;5.50;;
8958;SDS011;4514;49.476;8.484;2023-02-28T10:24:20;6.07;;;5.47;;
8958;SDS011;4514;49.476;8.484;2023-02-28T10:26:48;6.47;;;5.70;;
8958;SDS011;4514;49.476;8.484;2023-02-28T10:29:14;5.90;;;5.38;;
8958;SDS011;4514;49.476;8.484;2023-02-28T10:31:42;6.78;;;5.40;;
8958;SDS011;4514;49.476;8.484;2023-02-28T10:34:11;5.50;;;4.93;;
8958;SDS011;4514;49.476;8.484;2023-02-28T10:36:44;6.40;;;5.72;;
8958;SDS011;4514;49.476;8.484;2023-02-28T10:39:33;6.20;;;5.60;;
8958;SDS011;4514;49.476;8.484;2023-02-28T10:42:02;5.90;;;5.30;;
8958;SDS011;4514;49.476;8.484;2023-02-28T10:44:27;5.40;;;4.90;;
8958;SDS011;4514;49.476;8.484;2023-02-28T10:46:52;5.72;;;5.20;;
8958;SDS011;4514;49.476;8.484;2023-02-28T10:51:58;8.53;;;5.13;;
8958;SDS011;4514;49.476;8.484;2023-02-28T10:54:34;7.17;;;5.43;;
8958;SDS011;4514;49.476;8.484;2023-02-28T10:57:07;7.83;;;5.50;;
8958;SDS011;4514;49.476;8.484;2023-02-28T10:59:34;5.43;;;4.93;;
8958;SDS011;4514;49.476;8.484;2023-02-28T11:02:02;7.43;;;5.13;;
8958;SDS011;4514;49.476;8.484;2023-02-28T11:07:16;5.47;;;4.80;;
8958;SDS011;4514;49.476;8.484;2023-02-28T11:09:45;5.55;;;5.05;;
8958;SDS011;4514;49.476;8.484;2023-02-28T11:12:20;6.40;;;5.57;;
8958;SDS011;4514;49.476;8.484;2023-02-28T11:14:49;6.18;;;5.55;;
8958;SDS011;4514;49.476;8.484;2023-02-28T11:17:20;6.15;;;5.30;;
8958;SDS011;4514;49.476;8.484;2023-02-28T11:19:48;6.30;;;5.35;;
8958;SDS011;4514;49.476;8.484;2023-02-28T11:22:20;5.40;;;4.97;;
8958;SDS011;4514;49.476;8.484;2023-02-28T11:24:52;6.10;;;5.45;;
8958;SDS011;4514;49.476;8.484;2023-02-28T11:29:56;6.35;;;5.30;;
8958;SDS011;4514;49.476;8.484;2023-02-28T11:32:29;5.80;;;5.30;;
8958;SDS011;4514;49.476;8.484;2023-02-28T11:35:03;6.03;;;5.43;;
8958;SDS011;4514;49.476;8.484;2023-02-28T11:37:38;5.88;;;5.38;;
8958;SDS011;4514;49.476;8.484;2023-02-28T11:40:13;6.35;;;5.65;;
8958;SDS011;4514;49.476;8.484;2023-02-28T11:45:25;6.70;;;6.00;;
8958;SDS011;4514;49.476;8.484;2023-02-28T11:56:18;6.22;;;5.63;;
8958;SDS011;4514;49.476;8.484;2023-02-28T12:10:28;6.18;;;5.68;;
8958;SDS011;4514;49.476;8.484;2023-02-28T12:24:14;6.45;;;5.85;;
8958;SDS011;4514;49.476;8.484;2023-02-28T12:26:48;6.25;;;5.63;;
8958;SDS011;4514;49.476;8.484;2023-02-28T12:34:37;6.55;;;5.95;;
8958;SDS011;4514;49.476;8.484;2023-02-28T12:37:06;6.78;;;6.07;;
8958;SDS011;4514;49.476;8.484;2023-02-28T12:39:38;6.32;;;5.72;;
8958;SDS011;4514;49.476;8.484;2023-02-28T12:42:13;7.43;;;6.18;;
8958;SDS011;4514;49.476;8.484;2023-02-28T12:44:49;9.43;;;7.88;;
8958;SDS011;4514;49.476;8.484;2023-02-28T12:47:17;7.27;;;6.57;;
8958;SDS011;4514;49.476;8.484;2023-02-28T12:53:13;6.20;;;5.70;;
8958;SDS011;4514;49.476;8.484;2023-02-28T12:58:07;6.43;;;5.82;;
8958;SDS011;4514;49.476;8.484;2023-02-28T13:00:36;6.80;;;6.20;;
8958;SDS011;4514;49.476;8.484;2023-02-28T13:05:44;7.60;;;7.00;;
8958;SDS011;4514;49.476;8.484;2023-02-28T13:08:23;8.27;;;7.03;;
8958;SDS011;4514;49.476;8.484;2023-02-28T13:19:46;8.05;;;7.25;;
8958;SDS011;4514;49.476;8.484;2023-02-28T13:22:38;8.20;;;6.78;;
8958;SDS011;4514;49.476;8.484;2023-02-28T13:27:48;7.38;;;6.72;;
8958;SDS011;4514;49.476;8.484;2023-02-28T13:33:36;6.93;;;6.32;;
8958;SDS011;4514;49.476;8.484;2023-02-28T13:38:54;7.78;;;6.53;;
8958;SDS011;4514;49.476;8.484;2023-02-28T13:46:32;7.70;;;6.90;;
8958;SDS011;4514;49.476;8.484;2023-02-28T13:49:18;7.80;;;7.10;;
8958;SDS011;4514;49.476;8.484;2023-02-28T13:51:47;8.10;;;6.97;;
8958;SDS011;4514;49.476;8.484;2023-02-28T13:56:50;8.35;;;7.55;;
8958;SDS011;4514;49.476;8.484;2023-02-28T13:59:26;8.47;;;7.33;;
8958;SDS011;4514;49.476;8.484;2023-02-28T14:07:31;7.57;;;6.87;;
8958;SDS011;4514;49.476;8.484;2023-02-28T14:10:03;7.87;;;7.07;;
8958;SDS011;4514;49.476;8.484;2023-02-28T14:12:52;9.63;;;7.90;;
8958;SDS011;4514;49.476;8.484;2023-02-28T14:18:01;8.77;;;7.90;;
8958;SDS011;4514;49.476;8.484;2023-02-28T14:20:32;21.53;;;16.00;;
8958;SDS011;4514;49.476;8.484;2023-02-28T14:23:06;9.70;;;8.80;;
8958;SDS011;4514;49.476;8.484;2023-02-28T14:28:12;8.57;;;7.77;;
8958;SDS011;4514;49.476;8.484;2023-02-28T14:38:35;8.20;;;7.40;;
8958;SDS011;4514;49.476;8.484;2023-02-28T14:41:13;8.40;;;7.40;;
8958;SDS011;4514;49.476;8.484;2023-02-28T14:43:48;7.97;;;7.17;;
8958;SDS011;4514;49.476;8.484;2023-02-28T14:46:14;7.90;;;7.10;;
8958;SDS011;4514;49.476;8.484;2023-02-28T14:48:46;8.30;;;7.30;;
8958;SDS011;4514;49.476;8.484;2023-02-28T14:51:13;8.67;;;7.77;;
8958;SDS011;4514;49.476;8.484;2023-02-28T14:53:46;8.73;;;7.87;;
8958;SDS011;4514;49.476;8.484;2023-02-28T14:56:19;9.10;;;7.60;;
8958;SDS011;4514;49.476;8.484;2023-02-28T14:58:50;8.23;;;7.43;;
8958;SDS011;4514;49.476;8.484;2023-02-28T15:01:18;8.33;;;7.53;;
8958;SDS011;4514;49.476;8.484;2023-02-28T15:03:48;8.30;;;7.50;;
8958;SDS011;4514;49.476;8.484;2023-02-28T15:06:22;8.10;;;7.30;;
8958;SDS011;4514;49.476;8.484;2023-02-28T15:09:11;8.50;;;7.10;;
8958;SDS011;4514;49.476;8.484;2023-02-28T15:11:40;8.30;;;7.47;;
8958;SDS011;4514;49.476;8.484;2023-02-28T15:14:13;8.97;;;8.07;;
8958;SDS011;4514;49.476;8.484;2023-02-28T15:16:42;7.63;;;6.93;;
8958;SDS011;4514;49.476;8.484;2023-02-28T15:19:17;8.50;;;7.70;;
8958;SDS011;4514;49.476;8.484;2023-02-28T15:21:48;8.83;;;8.00;;
8958;SDS011;4514;49.476;8.484;2023-02-28T15:24:21;9.57;;;8.67;;
8958;SDS011;4514;49.476;8.484;2023-02-28T15:27:12;9.13;;;8.17;;
8958;SDS011;4514;49.476;8.484;2023-02-28T15:29:44;12.13;;;10.83;;
8958;SDS011;4514;49.476;8.484;2023-02-28T15:32:21;9.30;;;8.40;;
8958;SDS011;4514;49.476;8.484;2023-02-28T15:34:50;9.17;;;8.37;;
8958;SDS011;4514;49.476;8.484;2023-02-28T15:37:29;8.53;;;7.73;;
8958;SDS011;4514;49.476;8.484;2023-02-28T15:40:44;8.27;;;7.47;;
8958;SDS011;4514;49.476;8.484;2023-02-28T15:43:12;8.50;;;7.70;;
8958;SDS011;4514;49.476;8.484;2023-02-28T15:48:17;8.53;;;7.70;;
8958;SDS011;4514;49.476;8.484;2023-02-28T15:50:46;7.87;;;7.07;;
8958;SDS011;4514;49.476;8.484;2023-02-28T15:53:13;8.83;;;7.57;;
8958;SDS011;4514;49.476;8.484;2023-02-28T15:55:40;8.77;;;7.97;;
8958;SDS011;4514;49.476;8.484;2023-02-28T15:58:08;8.82;;;8.00;;
8958;SDS011;4514;49.476;8.484;2023-02-28T16:00:38;8.90;;;8.10;;
8958;SDS011;4514;49.476;8.484;2023-02-28T16:03:22;8.13;;;7.43;;
8958;SDS011;4514;49.476;8.484;2023-02-28T16:08:41;9.80;;;7.40;;
8958;SDS011;4514;49.476;8.484;2023-02-28T16:11:08;8.47;;;7.67;;
8958;SDS011;4514;49.476;8.484;2023-02-28T16:13:37;14.17;;;9.90;;
8958;SDS011;4514;49.476;8.484;2023-02-28T16:16:07;8.43;;;7.57;;
8958;SDS011;4514;49.476;8.484;2023-02-28T16:18:33;8.47;;;7.67;;
8958;SDS011;4514;49.476;8.484;2023-02-28T16:20:58;10.57;;;9.57;;
8958;SDS011;4514;49.476;8.484;2023-02-28T16:23:26;10.10;;;9.07;;
8958;SDS011;4514;49.476;8.484;2023-02-28T16:25:51;9.63;;;8.73;;
8958;SDS011;4514;49.476;8.484;2023-02-28T16:28:50;7.83;;;7.03;;
8958;SDS011;4514;49.476;8.484;2023-02-28T16:31:09;8.50;;;7.70;;
8958;SDS011;4514;49.476;8.484;2023-02-28T16:33:44;8.27;;;7.47;;
8958;SDS011;4514;49.476;8.484;2023-02-28T16:36:14;9.47;;;7.40;;
8958;SDS011;4514;49.476;8.484;2023-02-28T16:38:46;8.37;;;7.20;;
8958;SDS011;4514;49.476;8.484;2023-02-28T16:41:18;8.17;;;7.27;;
8958;SDS011;4514;49.476;8.484;2023-02-28T16:43:47;8.10;;;7.30;;
8958;SDS011;4514;49.476;8.484;2023-02-28T16:46:14;8.47;;;7.67;;
8958;SDS011;4514;49.476;8.484;2023-02-28T16:48:41;12.07;;;10.88;;
8958;SDS011;4514;49.476;8.484;2023-02-28T16:51:13;8.57;;;7.73;;
8958;SDS011;4514;49.476;8.484;2023-02-28T16:53:45;8.80;;;7.70;;
8958;SDS011;4514;49.476;8.484;2023-02-28T16:56:15;8.73;;;7.93;;
8958;SDS011;4514;49.476;8.484;2023-02-28T16:58:42;15.13;;;11.77;;
8958;SDS011;4514;49.476;8.484;2023-02-28T17:01:08;8.90;;;7.73;;
8958;SDS011;4514;49.476;8.484;2023-02-28T17:03:33;8.47;;;7.57;;
8958;SDS011;4514;49.476;8.484;2023-02-28T17:06:02;8.07;;;6.90;;
8958;SDS011;4514;49.476;8.484;2023-02-28T17:08:28;8.77;;;7.87;;
8958;SDS011;4514;49.476;8.484;2023-02-28T17:10:54;15.93;;;13.30;;
8958;SDS011;4514;49.476;8.484;2023-02-28T17:13:22;8.03;;;6.83;;
8958;SDS011;4514;49.476;8.484;2023-02-28T17:15:47;10.57;;;9.10;;
8958;SDS011;4514;49.476;8.484;2023-02-28T17:18:17;8.87;;;7.80;;
8958;SDS011;4514;49.476;8.484;2023-02-28T17:20:44;8.33;;;7.47;;
8958;SDS011;4514;49.476;8.484;2023-02-28T17:23:12;8.73;;;7.53;;
8958;SDS011;4514;49.476;8.484;2023-02-28T17:25:37;8.57;;;7.40;;
8958;SDS011;4514;49.476;8.484;2023-02-28T17:28:03;8.53;;;7.63;;
8958;SDS011;4514;49.476;8.484;2023-02-28T17:30:34;8.60;;;7.80;;
8958;SDS011;4514;49.476;8.484;2023-02-28T17:33:02;9.50;;;7.50;;
8958;SDS011;4514;49.476;8.484;2023-02-28T17:35:32;9.33;;;7.87;;
8958;SDS011;4514;49.476;8.484;2023-02-28T17:37:58;8.37;;;7.47;;
8958;SDS011;4514;49.476;8.484;2023-02-28T17:40:23;9.93;;;8.20;;
8958;SDS011;4514;49.476;8.484;2023-02-28T17:42:49;9.90;;;8.00;;
8958;SDS011;4514;49.476;8.484;2023-02-28T17:45:17;9.70;;;8.13;;
8958;SDS011;4514;49.476;8.484;2023-02-28T17:47:43;9.53;;;8.27;;
8958;SDS011;4514;49.476;8.484;2023-02-28T17:50:18;8.97;;;7.80;;
8958;SDS011;4514;49.476;8.484;2023-02-28T17:52:45;11.33;;;7.60;;
8958;SDS011;4514;49.476;8.484;2023-02-28T17:55:17;10.60;;;8.23;;
8958;SDS011;4514;49.476;8.484;2023-02-28T17:57:44;11.33;;;8.77;;
8958;SDS011;4514;49.476;8.484;2023-02-28T18:00:13;10.13;;;8.47;;
8958;SDS011;4514;49.476;8.484;2023-02-28T18:02:40;8.77;;;7.93;;
8958;SDS011;4514;49.476;8.484;2023-02-28T18:05:13;10.80;;;8.70;;
8958;SDS011;4514;49.476;8.484;2023-02-28T18:07:39;10.80;;;9.70;;
8958;SDS011;4514;49.476;8.484;2023-02-28T18:10:05;9.17;;;8.23;;
8958;SDS011;4514;49.476;8.484;2023-02-28T18:12:33;9.33;;;8.10;;